createdAt,value
2022-12-24T00:01:57.598Z,144.15
2022-12-24T00:04:27.361Z,170.15
2022-12-24T00:06:56.720Z,172.75
2022-12-24T00:09:26.552Z,157.05
2022-12-24T00:11:56.230Z,142.77
2022-12-24T00:14:26.492Z,175.13
2022-12-24T00:16:56.314Z,169.68
2022-12-24T00:19:25.683Z,173.73
2022-12-24T00:21:55.342Z,177.68
2022-12-24T00:24:24.990Z,180.70
2022-12-24T00:26:54.417Z,207.85
2022-12-24T00:29:24.074Z,183.38
2022-12-24T00:31:54.001Z,183.75
2022-12-24T00:34:26.027Z,167.05
2022-12-24T00:36:55.870Z,169.27
2022-12-24T00:39:25.483Z,158.25
2022-12-24T00:41:54.904Z,177.52
2022-12-24T00:44:24.598Z,175.35
2022-12-24T00:46:54.172Z,181.88
2022-12-24T00:49:23.786Z,155.75
2022-12-24T00:51:53.965Z,183.45
2022-12-24T00:54:23.678Z,149.65
2022-12-24T00:56:53.346Z,166.55
2022-12-24T00:59:23.082Z,150.77
2022-12-24T01:01:55.961Z,158.07
2022-12-24T01:04:46.507Z,164.27
2022-12-24T01:07:18.515Z,150.43
2022-12-24T01:09:49.690Z,159.38
2022-12-24T01:12:20.341Z,173.68
2022-12-24T01:14:51.144Z,143.60
2022-12-24T01:17:21.653Z,134.70
2022-12-24T01:19:52.049Z,147.60
2022-12-24T01:22:23.318Z,138.35
2022-12-24T01:24:53.835Z,148.38
2022-12-24T01:27:24.213Z,174.07
2022-12-24T01:29:54.557Z,178.00
2022-12-24T01:32:24.557Z,159.15
2022-12-24T01:34:54.861Z,161.95
2022-12-24T01:37:25.575Z,170.05
2022-12-24T01:40:15.569Z,169.63
2022-12-24T01:43:08.530Z,197.82
2022-12-24T01:45:47.358Z,174.80
2022-12-24T01:48:20.470Z,163.60
2022-12-24T01:50:57.756Z,172.48
2022-12-24T01:53:28.404Z,166.00
2022-12-24T01:55:59.208Z,147.02
2022-12-24T01:58:29.633Z,149.80
2022-12-24T02:00:59.910Z,162.20
2022-12-24T02:03:30.475Z,139.60
2022-12-24T02:06:02.067Z,126.18
2022-12-24T02:08:41.378Z,127.47
2022-12-24T02:11:23.166Z,139.45
2022-12-24T02:14:00.430Z,138.35
2022-12-24T02:16:36.423Z,131.65
2022-12-24T02:19:29.586Z,152.70
2022-12-24T02:22:04.765Z,155.65
2022-12-24T02:24:58.996Z,179.52
2022-12-24T02:28:20.411Z,142.23
2022-12-24T02:31:05.824Z,157.15
2022-12-24T02:33:40.513Z,166.18
2022-12-24T02:36:27.399Z,168.98
2022-12-24T02:39:04.807Z,408.27
2022-12-24T02:42:01.020Z,163.98
2022-12-24T02:44:33.656Z,172.02
2022-12-24T02:49:34.906Z,192.50
2022-12-24T02:52:05.556Z,196.02
2022-12-24T02:54:35.729Z,171.00
2022-12-24T02:57:08.475Z,180.60
2022-12-24T02:59:54.400Z,236.93
2022-12-24T03:02:42.462Z,197.10
2022-12-24T03:05:38.182Z,169.68
2022-12-24T03:08:18.558Z,186.85
2022-12-24T03:10:58.497Z,219.27
2022-12-24T03:13:30.434Z,212.35
2022-12-24T03:16:00.993Z,210.65
2022-12-24T03:18:32.265Z,217.10
2022-12-24T03:21:32.352Z,200.85
2022-12-24T03:24:02.991Z,218.65
2022-12-24T03:26:35.971Z,206.82
2022-12-24T03:29:10.244Z,181.20
2022-12-24T03:31:45.580Z,201.23
2022-12-24T03:34:17.670Z,235.77
2022-12-24T03:36:49.359Z,211.88
2022-12-24T03:39:20.156Z,229.00
2022-12-24T03:41:50.203Z,279.30
2022-12-24T03:44:20.596Z,282.05
2022-12-24T03:46:50.467Z,239.20
2022-12-24T03:49:20.732Z,260.60
2022-12-24T03:51:50.849Z,241.32
2022-12-24T03:54:20.981Z,265.40
2022-12-24T03:56:51.140Z,273.67
2022-12-24T03:59:22.116Z,227.38
2022-12-24T04:01:52.401Z,219.95
2022-12-24T04:04:22.710Z,183.95
2022-12-24T04:06:52.910Z,221.27
2022-12-24T04:09:23.484Z,206.40
2022-12-24T04:11:53.443Z,194.30
2022-12-24T04:14:23.276Z,201.85
2022-12-24T04:16:53.698Z,233.05
2022-12-24T04:19:23.847Z,192.02
2022-12-24T04:21:53.990Z,179.93
2022-12-24T04:24:24.496Z,163.02
2022-12-24T04:26:54.789Z,171.32
2022-12-24T04:29:24.752Z,170.10
2022-12-24T04:31:55.067Z,177.93
2022-12-24T04:34:25.433Z,194.75
2022-12-24T04:36:55.518Z,186.23
2022-12-24T04:39:26.098Z,172.82
2022-12-24T04:41:56.166Z,173.93
2022-12-24T04:44:26.530Z,178.20
2022-12-24T04:46:56.732Z,164.95
2022-12-24T04:49:26.796Z,175.93
2022-12-24T04:51:56.696Z,205.18
2022-12-24T04:54:27.007Z,173.63
2022-12-24T04:56:57.016Z,216.02
2022-12-24T04:59:27.253Z,256.42
2022-12-24T05:01:57.571Z,198.60
2022-12-24T05:04:28.023Z,216.63
2022-12-24T05:06:57.990Z,233.00
2022-12-24T05:09:27.943Z,226.13
2022-12-24T05:11:58.572Z,201.48
2022-12-24T05:14:28.700Z,200.43
2022-12-24T05:16:59.070Z,205.23
2022-12-24T05:19:29.673Z,205.60
2022-12-24T05:22:18.228Z,173.43
2022-12-24T05:25:06.392Z,166.63
2022-12-24T05:27:36.627Z,205.90
2022-12-24T05:30:07.445Z,197.25
2022-12-24T05:32:38.154Z,182.55
2022-12-24T05:38:10.919Z,223.68
2022-12-24T05:40:40.645Z,234.13
2022-12-24T05:43:10.320Z,230.85
2022-12-24T05:45:39.809Z,243.73
2022-12-24T05:48:09.321Z,245.60
2022-12-24T05:50:41.793Z,249.30
2022-12-24T05:53:12.253Z,253.27
2022-12-24T05:55:41.756Z,273.55
2022-12-24T05:58:11.138Z,305.20
2022-12-24T06:00:40.911Z,248.32
2022-12-24T06:03:10.502Z,277.42
2022-12-24T06:05:42.527Z,242.00
2022-12-24T06:08:11.992Z,270.10
2022-12-24T06:10:41.623Z,244.80
2022-12-24T06:13:11.193Z,259.70
2022-12-24T06:15:40.713Z,281.25
2022-12-24T06:18:10.390Z,285.23
2022-12-24T06:20:40.082Z,262.08
2022-12-24T06:23:09.395Z,243.50
2022-12-24T06:25:39.024Z,255.32
2022-12-24T06:28:08.500Z,256.73
2022-12-24T06:30:38.010Z,248.23
2022-12-24T06:33:07.823Z,261.15
2022-12-24T06:35:37.082Z,253.20
2022-12-24T06:38:06.637Z,278.10
2022-12-24T06:40:36.227Z,258.45
2022-12-24T06:43:05.713Z,221.63
2022-12-24T06:45:35.430Z,261.00
2022-12-24T06:48:05.285Z,255.30
2022-12-24T06:50:38.075Z,217.63
2022-12-24T06:53:08.086Z,250.32
2022-12-24T06:55:38.086Z,245.60
2022-12-24T06:58:07.830Z,263.05
2022-12-24T07:00:37.643Z,231.18
2022-12-24T07:03:07.372Z,229.52
2022-12-24T07:05:36.759Z,219.30
2022-12-24T07:08:06.346Z,204.32
2022-12-24T07:10:36.106Z,244.52
2022-12-24T07:13:05.589Z,234.40
2022-12-24T07:15:35.264Z,206.30
2022-12-24T07:18:04.972Z,227.95
2022-12-24T07:20:34.328Z,213.23
2022-12-24T07:23:03.968Z,203.50
2022-12-24T07:25:33.618Z,215.55
2022-12-24T07:28:02.924Z,213.90
2022-12-24T07:30:32.544Z,247.73
2022-12-24T07:33:01.857Z,228.52
2022-12-24T07:35:31.257Z,212.35
2022-12-24T07:38:00.758Z,207.18
2022-12-24T07:40:30.221Z,219.38
2022-12-24T07:42:59.767Z,201.57
2022-12-24T07:45:29.190Z,225.02
2022-12-24T07:47:59.131Z,191.77
2022-12-24T07:50:28.882Z,205.77
2022-12-24T07:52:58.318Z,203.05
2022-12-24T07:55:28.209Z,159.10
2022-12-24T07:57:57.858Z,188.70
2022-12-24T08:00:27.404Z,168.55
2022-12-24T08:02:57.144Z,188.65
2022-12-24T08:05:27.679Z,208.15
2022-12-24T08:07:57.432Z,184.65
2022-12-24T08:10:26.985Z,194.38
2022-12-24T08:12:56.470Z,174.15
2022-12-24T08:15:25.851Z,200.38
2022-12-24T08:17:55.174Z,185.80
2022-12-24T08:20:24.751Z,199.43
2022-12-24T08:22:54.918Z,208.93
2022-12-24T08:25:24.462Z,206.25
2022-12-24T08:27:53.787Z,230.60
2022-12-24T08:30:23.283Z,218.77
2022-12-24T08:32:52.762Z,251.10
2022-12-24T08:35:22.763Z,211.30
2022-12-24T08:37:52.387Z,214.43
2022-12-24T08:40:22.267Z,222.98
2022-12-24T08:42:52.180Z,221.50
2022-12-24T08:45:22.165Z,189.10
2022-12-24T08:47:51.704Z,222.73
2022-12-24T08:50:21.207Z,185.50
2022-12-24T08:52:51.153Z,213.45
2022-12-24T08:55:20.899Z,220.95
2022-12-24T08:57:50.401Z,204.00
2022-12-24T09:00:20.571Z,183.77
2022-12-24T09:02:50.155Z,179.35
2022-12-24T09:05:20.017Z,198.13
2022-12-24T09:07:49.642Z,192.55
2022-12-24T09:10:19.095Z,182.43
2022-12-24T09:12:49.094Z,180.23
2022-12-24T09:15:18.810Z,173.68
2022-12-24T09:17:48.335Z,219.20
2022-12-24T09:20:17.759Z,164.88
2022-12-24T09:22:47.492Z,182.60
2022-12-24T09:25:18.039Z,169.30
2022-12-24T09:27:48.271Z,159.90
2022-12-24T09:30:18.126Z,205.00
2022-12-24T09:32:47.795Z,180.75
2022-12-24T09:35:17.188Z,190.75
2022-12-24T09:37:46.919Z,151.27
2022-12-24T09:40:27.036Z,171.52
2022-12-24T09:42:56.794Z,154.82
2022-12-24T09:45:39.392Z,159.70
2022-12-24T09:48:25.149Z,167.18
2022-12-24T09:51:18.128Z,163.55
2022-12-24T09:54:01.813Z,158.00
2022-12-24T09:56:46.298Z,188.63
2022-12-24T09:59:19.302Z,196.57
2022-12-24T10:01:50.872Z,176.60
2022-12-24T10:04:24.409Z,200.65
2022-12-24T10:07:24.187Z,194.05
2022-12-24T10:10:29.623Z,193.95
2022-12-24T10:13:26.646Z,176.98
2022-12-24T10:16:09.445Z,156.23
2022-12-24T10:18:52.260Z,178.02
2022-12-24T10:21:58.399Z,178.18
2022-12-24T10:24:48.108Z,193.73
2022-12-24T10:27:23.242Z,187.82
2022-12-24T10:30:02.803Z,206.82
2022-12-24T10:32:35.762Z,202.68
2022-12-24T10:35:17.373Z,213.80
2022-12-24T10:37:50.398Z,207.23
2022-12-24T10:40:45.940Z,192.18
2022-12-24T10:43:17.342Z,171.65
2022-12-24T10:45:54.306Z,210.25
2022-12-24T10:48:50.478Z,214.98
2022-12-24T10:51:50.219Z,198.50
2022-12-24T10:54:26.997Z,195.75
2022-12-24T10:57:03.736Z,198.10
2022-12-24T10:59:53.556Z,211.88
2022-12-24T11:02:37.892Z,246.57
2022-12-24T11:05:32.836Z,211.63
2022-12-24T11:08:18.717Z,237.65
2022-12-24T11:11:02.398Z,252.10
2022-12-24T11:13:47.637Z,237.40
2022-12-24T11:16:28.315Z,222.93
2022-12-24T11:19:03.085Z,253.38
2022-12-24T11:21:34.747Z,241.60
2022-12-24T11:24:10.396Z,234.50
2022-12-24T11:26:40.733Z,257.65
2022-12-24T11:29:26.626Z,257.77
2022-12-24T11:32:19.277Z,238.02
2022-12-24T11:34:49.124Z,247.93
2022-12-24T11:37:26.235Z,240.00
2022-12-24T11:40:01.665Z,226.10
2022-12-24T11:42:41.872Z,248.20
2022-12-24T11:45:27.426Z,238.10
2022-12-24T11:47:57.977Z,260.08
2022-12-24T11:50:36.815Z,227.35
2022-12-24T11:53:06.306Z,262.50
2022-12-24T11:55:53.969Z,265.67
2022-12-24T11:58:50.627Z,273.52
2022-12-24T12:01:48.175Z,282.67
2022-12-24T12:04:26.092Z,255.45
2022-12-24T12:07:17.238Z,283.98
2022-12-24T12:10:01.334Z,248.07
2022-12-24T12:12:36.476Z,269.40
2022-12-24T12:15:17.308Z,256.92
2022-12-24T12:17:46.823Z,250.50
2022-12-24T12:20:57.943Z,233.88
2022-12-24T12:23:38.145Z,261.75
2022-12-24T12:26:17.141Z,253.27
2022-12-24T12:29:01.901Z,291.77
2022-12-24T12:31:37.384Z,291.75
2022-12-24T12:37:14.225Z,259.75
2022-12-24T12:39:44.845Z,273.98
2022-12-24T12:42:36.499Z,278.35
2022-12-24T12:45:47.885Z,285.42
2022-12-24T12:48:23.648Z,281.55
2022-12-24T12:51:17.159Z,273.45
2022-12-24T12:53:55.515Z,276.58
2022-12-24T12:56:35.086Z,250.15
2022-12-24T12:59:18.763Z,283.88
2022-12-24T13:01:51.161Z,284.13
2022-12-24T13:05:18.114Z,274.90
2022-12-24T13:08:14.729Z,267.92
2022-12-24T13:11:25.421Z,262.42
2022-12-24T13:14:06.811Z,266.02
2022-12-24T13:16:50.763Z,277.10
2022-12-24T13:20:02.251Z,272.65
2022-12-24T13:22:32.522Z,294.20
2022-12-24T13:25:02.696Z,285.08
2022-12-24T13:27:36.377Z,290.52
2022-12-24T13:30:41.985Z,275.10
2022-12-24T13:33:35.653Z,264.85
2022-12-24T13:36:07.640Z,298.58
2022-12-24T13:38:50.782Z,279.05
2022-12-24T13:41:42.253Z,257.13
2022-12-24T13:44:15.741Z,260.42
2022-12-24T13:47:00.152Z,279.75
2022-12-24T13:49:46.283Z,271.77
2022-12-24T13:52:24.587Z,285.45
2022-12-24T13:55:00.575Z,291.45
2022-12-24T13:57:46.177Z,297.23
2022-12-24T14:00:25.981Z,334.80
2022-12-24T14:03:08.754Z,302.88
2022-12-24T14:08:13.839Z,268.00
2022-12-24T14:11:13.001Z,269.83
2022-12-24T14:13:43.238Z,273.88
2022-12-24T14:16:27.341Z,261.00
2022-12-24T14:19:11.791Z,257.48
2022-12-24T14:22:06.648Z,259.67
2022-12-24T14:24:40.063Z,267.52
2022-12-24T14:27:34.094Z,282.00
2022-12-24T14:30:09.864Z,288.55
2022-12-24T14:32:42.594Z,318.33
2022-12-24T14:35:37.239Z,322.48
2022-12-24T14:38:15.615Z,349.15
2022-12-24T14:41:11.277Z,347.70
2022-12-24T14:44:08.795Z,376.88
2022-12-24T14:47:03.564Z,366.02
2022-12-24T14:50:18.568Z,383.48
2022-12-24T14:53:11.894Z,425.42
2022-12-24T14:55:49.867Z,422.17
2022-12-24T14:58:38.651Z,429.33
2022-12-24T15:01:30.541Z,421.38
2022-12-24T15:04:13.040Z,392.33
2022-12-24T15:06:54.602Z,429.52
2022-12-24T15:09:30.990Z,391.02
2022-12-24T15:12:06.808Z,376.55
2022-12-24T15:14:49.038Z,388.55
2022-12-24T15:17:23.020Z,396.75
2022-12-24T15:19:57.944Z,403.25
2022-12-24T15:22:33.087Z,388.17
2022-12-24T15:25:04.587Z,447.63
2022-12-24T15:27:40.472Z,439.15
2022-12-24T15:30:23.040Z,402.65
2022-12-24T15:32:59.628Z,359.88
2022-12-24T15:35:49.214Z,362.25
2022-12-24T15:38:36.318Z,380.75
2022-12-24T15:41:30.616Z,374.55
2022-12-24T15:46:36.748Z,324.80
2022-12-24T15:49:07.180Z,341.50
2022-12-24T15:51:40.877Z,322.60
2022-12-24T15:54:19.491Z,348.67
2022-12-24T15:56:50.958Z,357.10
2022-12-24T15:59:38.528Z,360.20
2022-12-24T16:02:34.664Z,349.35
2022-12-24T16:05:31.324Z,371.02
2022-12-24T16:08:27.466Z,347.23
2022-12-24T16:11:19.946Z,376.45
2022-12-24T16:13:53.413Z,363.40
2022-12-24T16:16:33.879Z,374.02
2022-12-24T16:19:12.067Z,386.83
2022-12-24T16:21:47.093Z,406.88
2022-12-24T16:24:33.224Z,397.20
2022-12-24T16:27:03.588Z,379.83
2022-12-24T16:29:35.203Z,393.95
2022-12-24T16:32:05.777Z,385.35
2022-12-24T16:34:36.424Z,389.23
2022-12-24T16:37:12.753Z,391.40
2022-12-24T16:39:49.900Z,386.27
2022-12-24T16:42:39.215Z,394.85
2022-12-24T16:45:15.260Z,383.80
2022-12-24T16:47:48.363Z,392.35
2022-12-24T16:50:19.910Z,376.27
2022-12-24T16:52:53.314Z,378.90
2022-12-24T16:55:23.639Z,364.23
2022-12-24T16:57:56.920Z,374.88
2022-12-24T17:00:30.196Z,352.50
2022-12-24T17:03:04.653Z,324.60
2022-12-24T17:05:43.057Z,357.60
2022-12-24T17:08:15.114Z,339.48
2022-12-24T17:10:58.352Z,341.33
2022-12-24T17:13:39.797Z,352.02
2022-12-24T17:16:12.239Z,360.23
2022-12-24T17:18:43.012Z,380.02
2022-12-24T17:21:22.717Z,352.58
2022-12-24T17:23:55.734Z,361.40
2022-12-24T17:26:26.320Z,362.90
2022-12-24T17:28:57.832Z,360.38
2022-12-24T17:31:37.669Z,386.40
2022-12-24T17:34:11.054Z,351.85
2022-12-24T17:36:41.492Z,325.48
2022-12-24T17:39:11.894Z,376.45
2022-12-24T17:41:43.652Z,341.65
2022-12-24T17:44:22.846Z,345.77
2022-12-24T17:46:54.766Z,333.67
2022-12-24T17:49:26.380Z,350.40
2022-12-24T17:51:58.454Z,333.77
2022-12-24T17:54:33.053Z,320.08
2022-12-24T17:57:07.549Z,320.35
2022-12-24T17:59:39.145Z,335.27
2022-12-24T18:02:11.449Z,298.42
2022-12-24T18:04:43.020Z,319.30
2022-12-24T18:07:19.056Z,318.10
2022-12-24T18:09:53.425Z,294.77
2022-12-24T18:12:23.822Z,308.98
2022-12-24T18:14:54.049Z,313.67
2022-12-24T18:17:24.567Z,317.67
2022-12-24T18:19:57.793Z,317.83
2022-12-24T18:22:28.426Z,345.70
2022-12-24T18:24:58.639Z,333.25
2022-12-24T18:27:28.932Z,324.85
2022-12-24T18:30:00.400Z,310.15
2022-12-24T18:32:30.736Z,303.95
2022-12-24T18:35:01.126Z,312.73
2022-12-24T18:37:34.338Z,327.88
2022-12-24T18:40:05.858Z,317.38
2022-12-24T18:42:36.365Z,331.35
2022-12-24T18:45:06.855Z,324.95
2022-12-24T18:47:36.850Z,290.73
2022-12-24T18:50:07.026Z,306.50
2022-12-24T18:52:36.964Z,306.95
2022-12-24T18:55:06.640Z,294.33
2022-12-24T18:57:36.633Z,271.35
2022-12-24T19:00:06.754Z,274.25
2022-12-24T19:02:36.467Z,261.30
2022-12-24T19:05:06.568Z,266.25
2022-12-24T19:07:36.706Z,271.90
2022-12-24T19:10:06.525Z,259.23
2022-12-24T19:12:36.539Z,261.02
2022-12-24T19:15:07.785Z,232.68
2022-12-24T19:17:37.678Z,234.32
2022-12-24T19:20:09.348Z,247.00
2022-12-24T19:22:39.008Z,235.80
2022-12-24T19:25:08.965Z,234.35
2022-12-24T19:27:38.259Z,231.88
2022-12-24T19:30:08.690Z,222.55
2022-12-24T19:32:39.012Z,229.85
2022-12-24T19:35:08.920Z,224.88
2022-12-24T19:37:38.449Z,226.93
2022-12-24T19:40:09.253Z,217.98
2022-12-24T19:42:38.722Z,230.82
2022-12-24T19:45:11.775Z,227.50
2022-12-24T19:47:41.207Z,240.88
2022-12-24T19:50:11.263Z,219.82
2022-12-24T19:52:40.841Z,263.77
2022-12-24T19:55:11.897Z,225.18
2022-12-24T19:57:41.408Z,250.27
2022-12-24T20:00:11.836Z,224.35
2022-12-24T20:02:41.378Z,244.00
2022-12-24T20:05:11.050Z,292.33
2022-12-24T20:07:40.502Z,267.27
2022-12-24T20:10:10.883Z,272.55
2022-12-24T20:12:40.515Z,492.92
2022-12-24T20:15:10.475Z,367.52
2022-12-24T20:17:40.060Z,312.58
2022-12-24T20:20:10.187Z,297.98
2022-12-24T20:22:39.862Z,356.38
2022-12-24T20:25:10.410Z,490.48
2022-12-24T20:27:40.258Z,548.13
2022-12-24T20:30:10.457Z,513.08
2022-12-24T20:32:40.015Z,519.25
2022-12-24T20:35:10.123Z,512.72
2022-12-24T20:37:45.746Z,508.83
2022-12-24T20:40:16.510Z,495.95
2022-12-24T20:42:46.063Z,500.33
2022-12-24T20:45:15.745Z,517.42
2022-12-24T20:47:47.629Z,519.60
2022-12-24T20:50:17.571Z,499.70
2022-12-24T20:52:47.251Z,509.85
2022-12-24T20:55:18.406Z,519.97
2022-12-24T20:57:51.008Z,498.42
2022-12-24T21:00:21.093Z,502.95
2022-12-24T21:02:50.883Z,511.13
2022-12-24T21:05:21.582Z,472.98
2022-12-24T21:07:51.022Z,493.10
2022-12-24T21:10:20.576Z,506.80
2022-12-24T21:12:58.155Z,467.38
2022-12-24T21:15:31.102Z,471.25
2022-12-24T21:18:01.842Z,472.23
2022-12-24T21:20:31.756Z,486.52
2022-12-24T21:23:02.872Z,457.65
2022-12-24T21:25:32.386Z,458.95
2022-12-24T21:28:01.918Z,439.05
2022-12-24T21:30:33.328Z,468.40
2022-12-24T21:33:02.845Z,479.30
2022-12-24T21:35:32.361Z,458.85
2022-12-24T21:38:01.817Z,444.60
2022-12-24T21:40:31.713Z,398.50
2022-12-24T21:43:01.265Z,422.60
2022-12-24T21:45:30.851Z,416.00
2022-12-24T21:48:20.286Z,404.75
2022-12-24T21:50:59.245Z,393.27
2022-12-24T21:53:47.428Z,340.70
2022-12-24T21:56:16.825Z,314.77
2022-12-24T21:58:46.532Z,321.88
2022-12-24T22:01:16.094Z,343.92
2022-12-24T22:03:48.872Z,332.85
2022-12-24T22:06:36.958Z,353.27
2022-12-24T22:09:24.607Z,340.17
2022-12-24T22:11:55.162Z,386.98
2022-12-24T22:14:24.833Z,339.73
2022-12-24T22:16:54.313Z,363.15
2022-12-24T22:19:23.705Z,377.80
2022-12-24T22:21:53.415Z,361.40
2022-12-24T22:24:22.940Z,360.55
2022-12-24T22:26:52.389Z,364.38
2022-12-24T22:29:21.804Z,346.85
2022-12-24T22:31:51.462Z,302.90
2022-12-24T22:34:20.761Z,310.33
2022-12-24T22:36:50.337Z,349.48
2022-12-24T22:39:20.101Z,319.88
2022-12-24T22:41:49.572Z,359.83
2022-12-24T22:44:19.207Z,376.30
2022-12-24T22:46:48.773Z,377.75
2022-12-24T22:49:18.051Z,322.10
2022-12-24T22:51:47.724Z,297.08
2022-12-24T22:54:17.167Z,275.95
2022-12-24T22:56:47.113Z,298.52
2022-12-24T22:59:16.818Z,313.55
2022-12-24T23:01:48.440Z,334.67
2022-12-24T23:04:18.197Z,393.45
2022-12-24T23:06:47.720Z,226.52
2022-12-24T23:09:18.577Z,243.68
2022-12-24T23:11:48.281Z,221.23
2022-12-24T23:14:40.589Z,216.48
2022-12-24T23:17:10.864Z,230.05
2022-12-24T23:19:40.741Z,196.70
2022-12-24T23:22:11.689Z,209.23
2022-12-24T23:24:42.572Z,201.00
2022-12-24T23:27:12.182Z,173.90
2022-12-24T23:29:42.445Z,212.43
2022-12-24T23:32:11.813Z,213.32
2022-12-24T23:34:41.736Z,218.63
2022-12-24T23:37:11.124Z,200.80
2022-12-24T23:39:40.802Z,211.57
2022-12-24T23:42:10.394Z,200.20
2022-12-24T23:44:39.794Z,172.43
2022-12-24T23:47:09.862Z,190.10
2022-12-24T23:49:39.227Z,173.82
2022-12-24T23:52:08.706Z,169.40
2022-12-24T23:54:38.430Z,170.10
2022-12-24T23:57:07.976Z,134.38
2022-12-24T23:59:37.464Z,171.07
